Upstream stations:
Downstream station:
SHEF ID: CLVO2 Canadian River at Calvin, OK
STATION TYPE:
Regulating: Stage = 17.00, Flow = 48538
PRECIP STAGE RIV-FLOW VOLTAGE BAT-LOAD
in ft cfs volt volt
Ccp-Rev Ccp-Rev Ccp-Rev Ccp-Rev Ccp-Rev
(US/Central)
03/20 00:00 ---- 6.52 627 12.84 ----
03/20 01:00 ---- 6.50 615 12.82 ----
03/20 02:00 ---- 6.49 608 12.80 ----
03/20 03:00 ---- 6.49 608 12.77 ----
03/20 04:00 ---- 6.49 608 12.75 ----
03/20 05:00 ---- 6.51 621 12.72 ----
03/20 06:00 ---- 6.52 627 12.68 ----
03/20 07:00 ---- 6.53 634 12.66 ----
03/20 08:00 ---- 6.53 634 12.65 ----
03/20 09:00 ---- 6.53 634 12.73 ----
03/20 10:00 ---- 6.51 621 13.53 ----
03/20 11:00 ---- 6.49 608 14.41 ----
03/20 12:00 ---- 6.45 584 14.36 ----
03/20 13:00 ---- 6.49 608 14.31 ----
03/20 14:00 ---- 6.50 615 14.28 ----
03/20 15:00 ---- 6.49 608 14.23 ----
03/20 16:00 ---- 6.47 596 14.17 ----
03/20 17:00 ---- 6.45 584 13.56 ----
03/20 18:00 ---- 6.45 584 13.34 ----
03/20 19:00 ---- 6.46 590 13.02 ----
03/20 20:00 ---- 6.47 596 12.94 ----
03/20 21:00 ---- 6.46 590 12.92 ----
03/20 22:00 ---- 6.45 584 12.89 ----
03/20 23:00 ---- 6.45 584 12.88 ----